createdAt,value
2019-03-04T00:01:53.298Z,56.20
2019-03-04T00:04:23.509Z,56.32
2019-03-04T00:06:53.791Z,55.89
2019-03-04T00:09:24.114Z,56.36
2019-03-04T00:11:54.543Z,56.86
2019-03-04T00:14:24.806Z,57.19
2019-03-04T00:16:55.242Z,57.02
2019-03-04T00:19:25.546Z,56.98
2019-03-04T00:21:55.764Z,56.83
2019-03-04T00:24:25.920Z,57.42
2019-03-04T00:26:56.122Z,57.57
2019-03-04T00:29:26.355Z,57.59
2019-03-04T00:31:56.532Z,58.05
2019-03-04T00:34:26.760Z,58.57
2019-03-04T00:36:57.046Z,58.25
2019-03-04T00:39:27.325Z,57.79
2019-03-04T00:41:57.602Z,57.53
2019-03-04T00:44:27.745Z,57.64
2019-03-04T00:46:58.945Z,57.99
2019-03-04T00:49:29.152Z,57.66
2019-03-04T00:51:59.401Z,57.76
2019-03-04T00:54:29.561Z,57.18
2019-03-04T00:56:59.791Z,57.12
2019-03-04T00:59:31.415Z,57.23
2019-03-04T01:02:01.810Z,56.79
2019-03-04T01:04:32.206Z,55.70
2019-03-04T01:07:02.654Z,56.08
2019-03-04T01:09:32.929Z,55.78
2019-03-04T01:12:03.149Z,55.75
2019-03-04T01:14:33.409Z,55.24
2019-03-04T01:17:03.813Z,54.91
2019-03-04T01:19:34.234Z,55.02
2019-03-04T01:22:04.561Z,54.14
2019-03-04T01:24:34.688Z,53.51
2019-03-04T01:27:05.106Z,53.00
2019-03-04T01:29:35.501Z,52.06
2019-03-04T01:32:05.779Z,52.61
2019-03-04T01:34:35.938Z,52.31
2019-03-04T01:37:06.249Z,51.31
2019-03-04T01:39:36.502Z,51.05
2019-03-04T01:42:06.870Z,50.76
2019-03-04T01:44:37.220Z,50.83
2019-03-04T01:47:07.475Z,51.26
2019-03-04T01:49:37.648Z,50.45
2019-03-04T01:52:07.928Z,50.46
2019-03-04T01:54:38.359Z,49.95
2019-03-04T01:57:08.520Z,49.48
2019-03-04T01:59:38.822Z,49.49
2019-03-04T02:02:09.204Z,49.47
2019-03-04T02:04:39.350Z,49.26
2019-03-04T02:07:09.761Z,49.20
2019-03-04T02:09:40.043Z,49.24
2019-03-04T02:12:10.644Z,48.92
2019-03-04T02:14:40.926Z,49.07
2019-03-04T02:17:11.251Z,48.69
2019-03-04T02:19:41.540Z,48.55
2019-03-04T02:22:11.784Z,48.96
2019-03-04T02:24:42.046Z,49.00
2019-03-04T02:27:12.485Z,48.85
2019-03-04T02:29:42.838Z,48.76
2019-03-04T02:32:13.136Z,48.63
2019-03-04T02:34:43.485Z,48.58
2019-03-04T02:37:13.861Z,48.31
2019-03-04T02:39:44.145Z,47.96
2019-03-04T02:42:14.476Z,48.16
2019-03-04T02:44:44.766Z,48.39
2019-03-04T02:47:15.140Z,48.43
2019-03-04T02:49:45.482Z,48.44
2019-03-04T02:52:15.698Z,48.97
2019-03-04T02:54:45.960Z,48.72
2019-03-04T02:57:16.079Z,48.69
2019-03-04T02:59:46.334Z,49.06
2019-03-04T03:02:16.812Z,48.88
2019-03-04T03:04:47.243Z,48.96
2019-03-04T03:07:17.767Z,49.33
2019-03-04T03:09:48.163Z,49.35
2019-03-04T03:12:18.471Z,49.58
2019-03-04T03:14:48.693Z,49.28
2019-03-04T03:17:18.927Z,49.57
2019-03-04T03:19:49.117Z,49.85
2019-03-04T03:22:19.552Z,49.56
2019-03-04T03:24:50.015Z,49.14
2019-03-04T03:27:20.302Z,49.57
2019-03-04T03:29:52.130Z,49.70
2019-03-04T03:32:22.649Z,50.17
2019-03-04T03:34:52.772Z,49.42
2019-03-04T03:37:23.068Z,49.77
2019-03-04T03:39:53.339Z,50.20
2019-03-04T03:42:23.735Z,50.19
2019-03-04T03:44:53.968Z,50.82
2019-03-04T03:47:24.142Z,50.79
2019-03-04T03:49:54.504Z,51.14
2019-03-04T03:52:24.783Z,50.24
2019-03-04T03:54:55.168Z,50.32
2019-03-04T03:57:25.576Z,50.63
2019-03-04T03:59:55.916Z,50.47
2019-03-04T04:02:26.251Z,50.43
2019-03-04T04:04:56.600Z,50.34
2019-03-04T04:07:26.752Z,50.13
2019-03-04T04:09:57.040Z,50.19
2019-03-04T04:12:27.382Z,50.06
2019-03-04T04:15:06.414Z,49.08
2019-03-04T04:17:36.811Z,49.11
2019-03-04T04:20:07.904Z,48.66
2019-03-04T04:22:38.554Z,48.54
2019-03-04T04:25:09.420Z,48.38
2019-03-04T04:27:39.928Z,48.21
2019-03-04T04:30:11.390Z,48.01
2019-03-04T04:32:41.851Z,48.34
2019-03-04T04:35:12.154Z,48.12
2019-03-04T04:37:42.724Z,47.93
2019-03-04T04:40:13.186Z,47.19
2019-03-04T04:42:43.591Z,47.54
2019-03-04T04:45:14.838Z,47.66
2019-03-04T04:47:45.249Z,47.59
2019-03-04T04:50:15.801Z,47.25
2019-03-04T04:52:45.996Z,46.70
2019-03-04T04:55:16.298Z,47.60
2019-03-04T04:57:46.810Z,47.16
2019-03-04T05:00:17.918Z,47.21
2019-03-04T05:02:48.222Z,46.78
2019-03-04T05:05:19.736Z,46.61
2019-03-04T05:07:50.009Z,47.14
2019-03-04T05:10:20.539Z,47.54
2019-03-04T05:12:50.916Z,47.53
2019-03-04T05:15:21.393Z,46.52
2019-03-04T05:17:51.753Z,46.93
2019-03-04T05:20:23.319Z,47.15
2019-03-04T05:22:53.958Z,47.25
2019-03-04T05:25:24.222Z,47.45
2019-03-04T05:27:54.542Z,46.76
2019-03-04T05:30:25.476Z,46.68
2019-03-04T05:32:55.634Z,47.00
2019-03-04T05:35:25.818Z,46.70
2019-03-04T05:37:56.308Z,46.76
2019-03-04T05:40:26.612Z,47.09
2019-03-04T05:42:56.870Z,46.70
2019-03-04T05:45:27.117Z,46.88
2019-03-04T05:47:57.434Z,46.45
2019-03-04T05:50:27.911Z,46.89
2019-03-04T05:52:58.122Z,46.56
2019-03-04T05:55:28.361Z,46.50
2019-03-04T05:57:58.556Z,46.39
2019-03-04T06:00:31.069Z,46.51
2019-03-04T06:03:01.617Z,45.63
2019-03-04T06:05:32.000Z,45.53
2019-03-04T06:08:03.774Z,44.86
2019-03-04T06:10:34.021Z,45.27
2019-03-04T06:13:04.520Z,45.64
2019-03-04T06:15:34.943Z,45.24
2019-03-04T06:18:05.348Z,45.05
2019-03-04T06:20:35.694Z,45.11
2019-03-04T06:23:06.004Z,45.18
2019-03-04T06:25:36.336Z,44.65
2019-03-04T06:28:06.647Z,45.06
2019-03-04T06:30:36.877Z,44.77
2019-03-04T06:33:07.093Z,45.22
2019-03-04T06:35:37.357Z,44.97
2019-03-04T06:38:07.588Z,44.81
2019-03-04T06:40:37.784Z,44.53
2019-03-04T06:43:08.064Z,44.51
2019-03-04T06:45:38.226Z,43.91
2019-03-04T06:48:08.442Z,44.64
2019-03-04T06:50:54.491Z,44.20
2019-03-04T06:54:20.670Z,44.37
2019-03-04T06:57:33.970Z,44.61
2019-03-04T07:00:51.568Z,44.07
2019-03-04T07:03:32.146Z,43.96
2019-03-04T07:06:02.456Z,43.97
2019-03-04T07:09:04.706Z,43.84
2019-03-04T07:11:35.322Z,44.04
2019-03-04T07:14:06.553Z,45.12
2019-03-04T07:16:36.827Z,45.37
2019-03-04T07:19:10.475Z,46.05
2019-03-04T07:21:40.982Z,45.58
2019-03-04T07:24:11.238Z,45.90
2019-03-04T07:26:42.116Z,46.22
2019-03-04T07:29:12.365Z,46.67
2019-03-04T07:31:42.664Z,46.81
2019-03-04T07:34:12.977Z,47.08
2019-03-04T07:36:43.239Z,47.12
2019-03-04T07:39:20.666Z,46.79
2019-03-04T07:41:56.343Z,46.66
2019-03-04T07:44:26.757Z,46.47
2019-03-04T07:46:57.107Z,46.28
2019-03-04T07:49:29.482Z,46.21
2019-03-04T07:51:59.858Z,45.95
2019-03-04T07:54:30.097Z,45.97
2019-03-04T07:57:00.474Z,46.26
2019-03-04T07:59:30.666Z,46.62
2019-03-04T08:02:00.834Z,46.92
2019-03-04T08:04:31.202Z,47.42
2019-03-04T08:07:45.564Z,47.61
2019-03-04T08:11:12.216Z,48.83
2019-03-04T08:13:54.677Z,50.11
2019-03-04T08:16:25.051Z,52.54
2019-03-04T08:18:55.273Z,56.54
2019-03-04T08:21:25.692Z,64.19
2019-03-04T08:23:56.025Z,67.68
2019-03-04T08:26:26.404Z,69.39
2019-03-04T08:28:58.702Z,71.28
2019-03-04T08:31:28.761Z,72.47
2019-03-04T08:33:59.065Z,72.56
2019-03-04T08:36:29.299Z,72.07
2019-03-04T08:38:59.531Z,71.02
2019-03-04T08:41:29.843Z,74.39
2019-03-04T08:44:00.065Z,77.87
2019-03-04T08:46:30.461Z,77.97
2019-03-04T08:49:00.671Z,78.38
2019-03-04T08:51:30.819Z,78.23
2019-03-04T08:54:01.040Z,77.58
2019-03-04T08:56:33.038Z,75.56
2019-03-04T08:59:03.182Z,75.23
2019-03-04T09:01:33.476Z,73.89
2019-03-04T09:04:03.830Z,71.81
2019-03-04T09:06:34.072Z,71.17
2019-03-04T09:09:06.162Z,70.04
2019-03-04T09:11:36.577Z,68.52
2019-03-04T09:14:07.086Z,67.25
2019-03-04T09:16:37.252Z,65.65
2019-03-04T09:19:07.693Z,65.37
2019-03-04T09:21:38.021Z,64.54
2019-03-04T09:24:08.304Z,65.33
2019-03-04T09:26:38.712Z,65.42
2019-03-04T09:29:08.915Z,65.54
2019-03-04T09:31:39.257Z,65.66
2019-03-04T09:34:09.534Z,65.57
2019-03-04T09:36:39.728Z,63.92
2019-03-04T09:39:15.563Z,62.37
2019-03-04T09:41:45.901Z,63.56
2019-03-04T09:44:16.173Z,63.15
2019-03-04T09:46:46.427Z,62.99
2019-03-04T09:49:16.631Z,61.83
2019-03-04T09:51:46.772Z,61.58
2019-03-04T09:54:16.901Z,62.41
2019-03-04T09:56:47.074Z,61.88
2019-03-04T09:59:17.440Z,61.84
2019-03-04T10:01:53.565Z,61.75
2019-03-04T10:05:42.004Z,61.28
2019-03-04T10:08:33.194Z,61.41
2019-03-04T10:11:49.749Z,61.64
2019-03-04T10:15:20.604Z,62.26
2019-03-04T10:18:39.067Z,62.34
2019-03-04T10:21:39.457Z,63.26
2019-03-04T10:24:46.889Z,63.08
2019-03-04T10:28:38.749Z,62.64
2019-03-04T10:32:00.481Z,62.25
2019-03-04T10:35:23.821Z,62.14
2019-03-04T10:38:43.430Z,62.80
2019-03-04T10:41:39.971Z,63.12
2019-03-04T10:45:00.720Z,62.86
2019-03-04T10:47:30.877Z,63.00
2019-03-04T10:50:01.073Z,62.02
2019-03-04T10:52:31.210Z,61.92
2019-03-04T10:55:01.355Z,62.66
2019-03-04T10:57:31.636Z,61.98
2019-03-04T11:00:01.730Z,62.14
2019-03-04T11:02:31.953Z,62.24
2019-03-04T11:05:02.200Z,62.86
2019-03-04T11:07:32.481Z,62.23
2019-03-04T11:10:02.747Z,62.61
2019-03-04T11:12:33.032Z,62.15
2019-03-04T11:15:03.416Z,61.92
2019-03-04T11:17:33.779Z,62.38
2019-03-04T11:20:04.098Z,62.62
2019-03-04T11:22:34.406Z,62.35
2019-03-04T11:25:05.065Z,62.46
2019-03-04T11:27:35.326Z,62.22
2019-03-04T11:30:06.482Z,62.60
2019-03-04T11:32:36.795Z,62.35
2019-03-04T11:35:07.679Z,62.32
2019-03-04T11:37:38.049Z,61.88
2019-03-04T11:40:25.990Z,60.98
2019-03-04T11:42:56.304Z,60.36
2019-03-04T11:45:26.605Z,59.62
2019-03-04T11:47:58.057Z,59.23
2019-03-04T11:50:28.426Z,59.26
2019-03-04T11:52:58.637Z,58.92
2019-03-04T11:55:29.755Z,58.05
2019-03-04T11:58:00.026Z,57.57
2019-03-04T12:00:39.200Z,57.85
2019-03-04T12:03:10.575Z,57.59
2019-03-04T12:05:40.935Z,57.57
2019-03-04T12:08:11.220Z,57.58
2019-03-04T12:10:41.472Z,58.15
2019-03-04T12:13:11.883Z,58.00
2019-03-04T12:15:42.302Z,58.11
2019-03-04T12:18:12.692Z,58.69
2019-03-04T12:20:43.034Z,59.38
2019-03-04T12:23:13.330Z,59.56
2019-03-04T12:25:43.874Z,60.20
2019-03-04T12:28:14.417Z,60.54
2019-03-04T12:30:44.813Z,61.10
2019-03-04T12:33:15.115Z,61.26
2019-03-04T12:35:45.558Z,60.88
2019-03-04T12:38:15.887Z,60.69
2019-03-04T12:40:46.341Z,60.38
2019-03-04T12:43:16.496Z,59.71
2019-03-04T12:45:46.813Z,59.11
2019-03-04T12:48:17.266Z,58.18
2019-03-04T12:50:47.571Z,58.06
2019-03-04T12:53:17.872Z,57.97
2019-03-04T12:55:48.249Z,58.11
2019-03-04T12:58:18.596Z,58.54
2019-03-04T13:00:49.014Z,58.26
2019-03-04T13:03:24.256Z,57.58
2019-03-04T13:05:54.643Z,57.10
2019-03-04T13:08:24.975Z,56.78
2019-03-04T13:10:55.233Z,56.31
2019-03-04T13:13:25.581Z,56.58
2019-03-04T13:15:57.051Z,56.51
2019-03-04T13:18:27.296Z,56.32
2019-03-04T13:20:57.584Z,56.07
2019-03-04T13:23:28.003Z,55.49
2019-03-04T13:25:58.366Z,54.55
2019-03-04T13:28:28.668Z,54.55
2019-03-04T13:30:59.061Z,54.11
2019-03-04T13:33:29.505Z,53.11
2019-03-04T13:36:00.367Z,53.33
2019-03-04T13:38:30.646Z,51.70
2019-03-04T13:41:01.041Z,51.52
2019-03-04T13:43:31.196Z,51.42
2019-03-04T13:46:01.647Z,50.98
2019-03-04T13:48:31.953Z,49.17
2019-03-04T13:51:02.336Z,48.38
2019-03-04T13:53:32.719Z,48.29
2019-03-04T13:56:03.008Z,46.65
2019-03-04T13:58:33.383Z,47.23
2019-03-04T14:01:03.777Z,46.71
2019-03-04T14:03:33.989Z,46.61
2019-03-04T14:06:04.415Z,46.14
2019-03-04T14:08:34.781Z,46.13
2019-03-04T14:11:07.898Z,45.86
2019-03-04T14:13:38.280Z,45.12
2019-03-04T14:16:09.645Z,45.48
2019-03-04T14:18:39.880Z,45.58
2019-03-04T14:21:10.362Z,45.39
2019-03-04T14:23:40.765Z,45.03
2019-03-04T14:26:11.154Z,44.91
2019-03-04T14:28:41.393Z,45.29
2019-03-04T14:31:11.724Z,45.10
2019-03-04T14:33:41.927Z,45.32
2019-03-04T14:36:12.197Z,45.32
2019-03-04T14:38:43.924Z,45.52
2019-03-04T14:41:14.291Z,45.55
2019-03-04T14:43:44.461Z,46.05
2019-03-04T14:46:27.701Z,46.40
2019-03-04T14:48:58.052Z,46.20
2019-03-04T14:51:28.434Z,45.40
2019-03-04T14:53:58.654Z,45.56
2019-03-04T14:56:28.875Z,44.67
2019-03-04T14:59:10.281Z,44.92
2019-03-04T15:01:31.265Z,45.20
2019-03-04T15:04:01.590Z,45.72
2019-03-04T15:06:32.026Z,45.97
2019-03-04T15:09:02.552Z,46.14
2019-03-04T15:11:33.196Z,46.89
2019-03-04T15:14:03.428Z,47.38
2019-03-04T15:16:33.693Z,48.00
2019-03-04T15:19:04.143Z,48.30
2019-03-04T15:21:34.539Z,48.93
2019-03-04T15:24:05.035Z,49.54
2019-03-04T15:26:41.977Z,49.76
2019-03-04T15:29:07.543Z,50.76
2019-03-04T15:31:37.897Z,51.35
2019-03-04T15:34:08.268Z,52.49
2019-03-04T15:36:38.691Z,53.20
2019-03-04T15:39:22.603Z,53.85
2019-03-04T15:41:47.756Z,55.17
2019-03-04T15:44:18.059Z,64.23
2019-03-04T15:46:48.512Z,69.84
2019-03-04T15:49:18.732Z,76.08
2019-03-04T15:51:49.099Z,84.54
2019-03-04T15:54:19.473Z,87.87
2019-03-04T15:56:49.862Z,89.83
2019-03-04T15:59:20.259Z,90.35
2019-03-04T16:01:50.638Z,95.39
2019-03-04T16:04:21.101Z,96.44
2019-03-04T16:06:51.364Z,92.34
2019-03-04T16:09:23.627Z,90.72
2019-03-04T16:11:53.853Z,90.04
2019-03-04T16:14:24.203Z,89.34
2019-03-04T16:16:54.486Z,89.32
2019-03-04T16:19:24.874Z,89.44
2019-03-04T16:21:55.188Z,89.50
2019-03-04T16:24:25.611Z,89.66
2019-03-04T16:26:55.825Z,91.12
2019-03-04T16:29:26.040Z,90.58
2019-03-04T16:31:56.275Z,91.40
2019-03-04T16:34:26.593Z,90.92
2019-03-04T16:36:56.841Z,90.10
2019-03-04T16:39:27.593Z,90.85
2019-03-04T16:41:57.692Z,90.17
2019-03-04T16:44:27.956Z,89.33
2019-03-04T16:46:58.216Z,90.98
2019-03-04T16:49:28.371Z,91.12
2019-03-04T16:51:58.650Z,89.73
2019-03-04T16:54:29.074Z,89.68
2019-03-04T16:56:59.294Z,89.75
2019-03-04T16:59:29.461Z,89.01
2019-03-04T17:01:59.668Z,89.61
2019-03-04T17:04:29.978Z,91.96
2019-03-04T17:07:00.257Z,93.58
2019-03-04T17:09:30.652Z,93.78
2019-03-04T17:12:01.010Z,94.15
2019-03-04T17:14:31.345Z,94.61
2019-03-04T17:17:01.712Z,96.16
2019-03-04T17:19:32.019Z,96.47
2019-03-04T17:22:02.364Z,95.12
2019-03-04T17:24:32.902Z,95.45
2019-03-04T17:27:03.292Z,95.08
2019-03-04T17:29:33.454Z,94.38
2019-03-04T17:32:05.244Z,94.21
2019-03-04T17:34:35.631Z,93.72
2019-03-04T17:37:06.128Z,92.29
2019-03-04T17:39:36.421Z,92.74
2019-03-04T17:42:07.052Z,93.02
2019-03-04T17:44:37.433Z,93.09
2019-03-04T17:47:07.766Z,93.42
2019-03-04T17:49:38.271Z,92.86
2019-03-04T17:52:08.764Z,92.67
2019-03-04T17:54:39.080Z,91.63
2019-03-04T17:57:09.578Z,91.02
2019-03-04T17:59:39.877Z,90.49
2019-03-04T18:02:10.221Z,90.11
2019-03-04T18:04:40.381Z,90.20
2019-03-04T18:07:10.879Z,90.62
2019-03-04T18:09:41.126Z,89.44
2019-03-04T18:12:11.361Z,88.99
2019-03-04T18:14:41.610Z,87.29
2019-03-04T18:17:12.013Z,87.05
2019-03-04T18:19:42.250Z,87.32
2019-03-04T18:22:12.461Z,86.56
2019-03-04T18:24:42.591Z,86.03
2019-03-04T18:27:27.763Z,85.08
2019-03-04T18:31:03.676Z,83.63
2019-03-04T18:34:31.685Z,83.14
2019-03-04T18:37:25.849Z,83.12
2019-03-04T18:40:46.954Z,83.71
2019-03-04T18:43:55.028Z,84.12
2019-03-04T18:46:40.454Z,85.07
2019-03-04T18:49:11.834Z,86.10
2019-03-04T18:51:42.139Z,85.37
2019-03-04T18:54:20.269Z,86.02
2019-03-04T18:56:50.679Z,85.13
2019-03-04T18:59:21.482Z,85.98
2019-03-04T19:01:52.016Z,86.49
2019-03-04T19:04:22.403Z,86.75
2019-03-04T19:06:52.755Z,86.95
2019-03-04T19:09:23.187Z,86.54
2019-03-04T19:11:53.536Z,86.22
2019-03-04T19:14:23.779Z,86.34
2019-03-04T19:16:54.126Z,86.40
2019-03-04T19:19:24.487Z,84.82
2019-03-04T19:21:54.945Z,85.57
2019-03-04T19:24:25.301Z,85.43
2019-03-04T19:26:55.597Z,85.65
2019-03-04T19:29:25.951Z,85.04
2019-03-04T19:31:56.643Z,86.50
2019-03-04T19:34:27.006Z,85.50
2019-03-04T19:36:57.460Z,84.62
2019-03-04T19:39:27.987Z,83.74
2019-03-04T19:41:58.518Z,84.41
2019-03-04T19:44:29.974Z,85.35
2019-03-04T19:47:00.404Z,87.11
2019-03-04T19:49:30.785Z,87.98
2019-03-04T19:52:01.244Z,87.46
2019-03-04T19:54:31.729Z,88.62
2019-03-04T19:57:02.329Z,89.72
2019-03-04T19:59:32.781Z,91.39
2019-03-04T20:02:03.343Z,92.05
2019-03-04T20:04:33.829Z,93.12
2019-03-04T20:07:04.707Z,93.38
2019-03-04T20:09:35.047Z,95.10
2019-03-04T20:12:05.723Z,96.22
2019-03-04T20:14:36.153Z,95.65
2019-03-04T20:17:06.659Z,96.07
2019-03-04T20:19:37.042Z,95.81
2019-03-04T20:22:07.906Z,96.71
2019-03-04T20:24:38.346Z,97.35
2019-03-04T20:27:08.782Z,97.80
2019-03-04T20:29:39.297Z,97.54
2019-03-04T20:32:09.782Z,96.72
2019-03-04T20:34:40.184Z,96.69
2019-03-04T20:37:10.939Z,96.46
2019-03-04T20:39:41.399Z,95.68
2019-03-04T20:42:11.922Z,96.52
2019-03-04T20:44:42.204Z,96.83
2019-03-04T20:47:12.645Z,96.85
2019-03-04T20:49:43.025Z,97.14
2019-03-04T20:52:13.342Z,96.74
2019-03-04T20:54:43.756Z,97.57
2019-03-04T20:57:14.091Z,96.52
2019-03-04T20:59:44.429Z,96.73
2019-03-04T21:03:41.048Z,97.10
2019-03-04T21:06:11.870Z,97.21
2019-03-04T21:08:42.266Z,97.96
2019-03-04T21:11:12.892Z,98.02
2019-03-04T21:13:43.362Z,97.92
2019-03-04T21:16:13.703Z,97.48
2019-03-04T21:18:44.096Z,96.99
2019-03-04T21:21:14.511Z,97.01
2019-03-04T21:23:49.812Z,96.72
2019-03-04T21:26:31.276Z,97.45
2019-03-04T21:30:18.605Z,98.02
2019-03-04T21:33:22.533Z,98.32
2019-03-04T21:36:33.511Z,96.86
2019-03-04T21:39:05.121Z,96.92
2019-03-04T21:41:47.857Z,97.01
2019-03-04T21:45:33.237Z,98.03
2019-03-04T21:48:33.359Z,97.52
2019-03-04T21:52:19.879Z,97.08
2019-03-04T21:54:42.102Z,96.63
2019-03-04T21:57:39.694Z,96.96
2019-03-04T22:00:17.244Z,96.29
2019-03-04T22:03:08.179Z,97.57
2019-03-04T22:05:49.503Z,98.64
2019-03-04T22:08:11.429Z,99.02
2019-03-04T22:10:41.866Z,98.81
2019-03-04T22:13:12.279Z,98.54
2019-03-04T22:15:42.680Z,98.82
2019-03-04T22:18:13.231Z,97.87
2019-03-04T22:20:43.736Z,98.55
2019-03-04T22:23:14.183Z,99.18
2019-03-04T22:25:46.117Z,99.43
2019-03-04T22:28:16.501Z,99.07
2019-03-04T22:30:46.872Z,99.14
2019-03-04T22:33:17.713Z,99.06
2019-03-04T22:35:48.205Z,99.44
2019-03-04T22:38:18.672Z,99.28
2019-03-04T22:40:49.137Z,99.48
2019-03-04T22:43:19.608Z,98.40
2019-03-04T22:45:49.983Z,98.78
2019-03-04T22:48:20.330Z,98.18
2019-03-04T22:50:50.790Z,97.25
2019-03-04T22:53:21.204Z,97.29
2019-03-04T22:55:51.591Z,97.48
2019-03-04T22:58:28.599Z,98.38
2019-03-04T23:01:33.785Z,99.00
2019-03-04T23:04:21.091Z,97.91
2019-03-04T23:07:20.321Z,98.13
2019-03-04T23:10:40.395Z,97.33
2019-03-04T23:14:11.571Z,93.45
2019-03-04T23:16:41.910Z,93.58
2019-03-04T23:19:12.296Z,92.90
2019-03-04T23:21:42.772Z,91.75
2019-03-04T23:24:22.000Z,90.05
2019-03-04T23:26:52.219Z,89.04
2019-03-04T23:29:22.458Z,89.62
2019-03-04T23:31:53.085Z,88.92
2019-03-04T23:34:23.348Z,87.82
2019-03-04T23:36:53.686Z,87.72
2019-03-04T23:39:24.116Z,87.15
2019-03-04T23:41:54.420Z,87.40
2019-03-04T23:44:24.821Z,87.03
2019-03-04T23:46:55.123Z,86.91
2019-03-04T23:49:26.492Z,86.09
2019-03-04T23:51:56.724Z,86.74
2019-03-04T23:54:26.869Z,86.08
2019-03-04T23:56:57.079Z,86.78
2019-03-04T23:59:27.488Z,87.45
